Terminal Aerodrome Forecast
Issued by NWS Louisville, KY

Home | Current Version | Previous Version | Text Only | Print | Product List | Glossary On
Versions: 1 2 3 4 5 6 7 8 9 10 11 12 13 14 15
617
FTUS43 KLMK 161740
TAFLEX
TAF
KLEX 161740Z 1618/1718 26016G28KT P6SM VCSH SCT020 OVC035
      TEMPO 1618/1620 2SM -SHSN BKN025
     FM170300 25011KT P6SM OVC025
     FM171300 26015G22KT P6SM BKN040=

USA.gov is the U.S. government's official web portal to all federal, state and local government web resources and services.